KSEAKCLS

Guest
Details From KSEA - Seattle Tacoma Intl
To KCLS - CHEHALIS CENTRALIA
Flight Number -
Tags generated
Created
Modified
Stats Distance 54 nm / 100 km
Max Altitude 300 ft / 91 m
Waypoints 3
Social Downloads 4
Likes 0
Share VATSIM

Download

Looking for another format? Having issues loading an existing format? Contact us
Advertisement - Login to hide

Notes

Basic altitude profile: - Ascent Rate: 2500ft/min - Ascent Speed: 250kts - Cruise Altitude: 35000ft - Cruise Speed: 420kts - Descent Rate: 1500ft/min - Descent Speed: 250kts Options: - Use NATs: yes - Use PACOTS: yes - Use low airways: yes - Use high airways: yes

Route

KSEA SEA KCLS

ID Type Via Altitude Latitude Longitude Leg Dist Tot Dist Heading (true) Name
O KSEA APT - 0 ft / 0 m 47.45019˚ -122.31232˚ - 0 nm - Seattle Tacoma Intl
SEA VOR - 300 ft / 91 m 47.43536˚ -122.30961˚ 0 nm 0 nm 173° / 173° SEATTLE VORTAC
O KCLS APT - 0 ft / 0 m 46.67703˚ -122.98275˚ 53 nm 54 nm 211° / 211° CHEHALIS CENTRALIA

Altitude Profile

Advertisement - Login to hide

KSEA

Details ICAO KSEA (SEA)
Name Seattle Tacoma Intl
Region United States
Timezone America/Los_Angeles (UTC-8.0)
Stats Elevation 433 ft / 132 m (AMSL)
Location 47.450188° -122.312320°
Runways 3
Magnetic Variation 15.684° E

METAR

KSEA 160506Z 18005KT 3SM BR BKN006 OVC026 06/05 A3024

Decode

TAF

KSEA 160230Z 1603/1706 17005KT 4SM BR VCSH SCT002 OVC024 TEMPO 1603/1606 1SM -SHRA BR BKN002 OVC024 FM160600 24006KT P6SM VCSH BKN020 BKN035 FM160800 VRB04KT P6SM OVC012 FM161800 16005KT P6SM BKN025 OVC040

Decode

Departure Runways

ID Width Length Bearing (true) Bearing (mag) Surface Threshold Offset Overrun Length
16C 151 ft / 46 m 9,429 ft / 2,874 m 180.34° 164.66° Concrete 0 ft / 0 m 223 ft / 68 m
16L 151 ft / 46 m 11,904 ft / 3,628 m 180.34° 164.66° Concrete 0 ft / 0 m 151 ft / 46 m
16R 151 ft / 46 m 8,503 ft / 2,592 m 180.34° 164.66° Concrete 0 ft / 0 m 164 ft / 50 m
34C 151 ft / 46 m 9,429 ft / 2,874 m 0.34° 344.66° Concrete 0 ft / 0 m 394 ft / 120 m
34L 151 ft / 46 m 8,503 ft / 2,592 m 0.34° 344.66° Concrete 0 ft / 0 m 394 ft / 120 m
34R 151 ft / 46 m 11,904 ft / 3,628 m 0.34° 344.66° Concrete 0 ft / 0 m 400 ft / 122 m

KCLS

Details ICAO KCLS
Name CHEHALIS CENTRALIA
Region United States
Timezone America/Los_Angeles (UTC-8.0)
Stats Elevation 176 ft / 54 m (AMSL)
Location 46.677030° -122.982748°
Runways 1
Magnetic Variation 15.617° E

METAR

KCLS 160535Z AUTO 19004KT 10SM 03/03 A3028 RMK AO2

Decode

TAF

Not found

Destination Runways

ID Width Length Bearing (true) Bearing (mag) Surface Threshold Offset Overrun Length
16 150 ft / 46 m 5,004 ft / 1,525 m 177.80° 162.18° Concrete 0 ft / 0 m 0 ft / 0 m
34 150 ft / 46 m 5,004 ft / 1,525 m 357.80° 342.18° Concrete 0 ft / 0 m 0 ft / 0 m